Weather at Hutubi Shitizi General Heliport

Public forecast

Using degrees Celsius for public forecast. Weather courtesy of forecast.io.

Closest aviation weather report (METAR) to Hutubi Shitizi General Heliport

Closest report is Ürümqi Diwopu International Airport, 30.1 nm (55.7 km) ESE. Retrieved 2022/08/12 17:00 UTC (15 minutes ago):

ZWWW 121700Z 17003MPS CAVOK 21/17 Q1015 NOSIG

Closest aviation forecast (TAF) to Hutubi Shitizi General Heliport

Forecast is more than 12 hours old.

Closest forecast is Ürümqi Diwopu International Airport, 30.1 nm (55.7 km) ESE. Retrieved 2022/08/11 12:03 UTC (1 day ago):

TAF ZWWW 110910Z 1112/1212 34004MPS 9999 -SHRA BKN040 TX26/1209Z TN21/1123Z BECMG 1117/1118 18004MPS CAVOK BECMG 1203/1204 36004MPS BECMG 1207/1208 30005G10MPS 9999 -SHRA FEW040CB BKN040 TEMPO 1209/1212 30010G15MPS SHRA